Rices Mills, Vermont
Current Conditions -  °F | °C
As of 12:00 PM on Thursday 23 Oct 2014 (Local Time) from KLEB Reporting Station
Light Rain Light Rain  
Wind Chill: 45°   Ceiling: 1200
Heat Index: 48°   Visibility: 3mi
Dew Point: 44°   Wind: 6mph
Humidity: 86%   Direction: 310°NW
Pressure: 29.83"   Gusts: NA
Location:  43.8204°N, 72.274°W
Report Text: KLEB 231600Z 31005KT 3SM -RA BR SCT002 OVC012 09/07 A2983 RMK AO2 P0001 T00890067
Loading
Personal Weather Stations






























Interactive Weather Map
Tropical Storm Tracking
New forecast layout! Learn more

10-Day Weather Forecast

Advertisements
Track Severe Weather on mobile